createdAt,value
2022-12-04T00:00:27.260Z,102630.09
2022-12-04T00:02:54.280Z,102627.81
2022-12-04T00:05:21.195Z,102623.75
2022-12-04T00:07:48.178Z,102625.09
2022-12-04T00:10:15.131Z,102631.78
2022-12-04T00:12:42.064Z,102633.38
2022-12-04T00:15:25.052Z,102628.50
2022-12-04T00:17:53.248Z,102641.03
2022-12-04T00:20:20.280Z,102635.13
2022-12-04T00:22:47.454Z,102618.22
2022-12-04T00:25:14.443Z,102621.91
2022-12-04T00:27:41.447Z,102550.19
2022-12-04T00:30:08.897Z,102633.81
2022-12-04T00:32:35.849Z,102624.28
2022-12-04T00:35:02.937Z,102602.34
2022-12-04T00:37:29.932Z,102614.69
2022-12-04T00:39:57.000Z,102620.84
2022-12-04T00:42:24.211Z,102643.66
2022-12-04T00:44:51.006Z,102631.25
2022-12-04T00:47:18.011Z,102615.75
2022-12-04T00:49:44.882Z,102613.53
2022-12-04T00:52:11.852Z,102631.41
2022-12-04T00:54:38.944Z,102619.53
2022-12-04T00:57:05.914Z,102601.47
2022-12-04T00:59:32.768Z,102584.03
2022-12-04T01:01:59.704Z,102602.75
2022-12-04T01:04:26.539Z,102627.19
2022-12-04T01:06:53.486Z,102610.63
2022-12-04T01:09:20.423Z,102625.16
2022-12-04T01:11:47.486Z,102620.03
2022-12-04T01:14:14.362Z,102612.03
2022-12-04T01:16:41.433Z,102605.69
2022-12-04T01:19:11.524Z,102621.81
2022-12-04T01:21:39.293Z,102602.69
2022-12-04T01:24:07.026Z,102571.31
2022-12-04T01:26:34.470Z,102592.47
2022-12-04T01:29:01.821Z,102603.13
2022-12-04T01:31:28.804Z,102586.19
2022-12-04T01:33:55.757Z,102624.91
2022-12-04T01:36:26.386Z,102618.75
2022-12-04T01:38:53.403Z,102623.13
2022-12-04T01:41:26.910Z,102594.16
2022-12-04T01:44:14.449Z,102630.25
2022-12-04T01:46:42.809Z,102618.75
2022-12-04T01:49:15.242Z,102628.75
2022-12-04T01:51:48.515Z,102612.19
2022-12-04T01:54:22.696Z,102628.06
2022-12-04T01:56:54.563Z,102613.19
2022-12-04T01:59:26.045Z,102629.41
2022-12-04T02:02:03.821Z,102622.75
2022-12-04T02:04:31.873Z,102580.84
2022-12-04T02:06:58.832Z,102618.28
2022-12-04T02:09:27.272Z,102643.84
2022-12-04T02:12:23.744Z,102610.38
2022-12-04T02:15:31.997Z,102616.25
2022-12-04T02:18:09.923Z,102643.84
2022-12-04T02:21:00.977Z,102649.78
2022-12-04T02:23:51.715Z,102628.00
2022-12-04T02:26:40.753Z,102634.44
2022-12-04T02:30:00.277Z,102614.25
2022-12-04T02:32:45.665Z,102639.19
2022-12-04T02:35:35.331Z,102643.38
2022-12-04T02:38:14.296Z,102651.28
2022-12-04T02:41:19.959Z,102649.13
2022-12-04T02:43:54.819Z,102609.66
2022-12-04T02:46:37.081Z,102615.94
2022-12-04T02:49:08.431Z,102649.84
2022-12-04T02:51:39.700Z,102619.66
2022-12-04T02:54:13.662Z,102650.06
2022-12-04T02:56:45.151Z,102641.09
2022-12-04T02:59:23.132Z,102647.78
2022-12-04T03:01:55.622Z,102644.34
2022-12-04T03:04:27.291Z,102653.50
2022-12-04T03:07:06.226Z,102664.88
2022-12-04T03:09:56.431Z,102640.56
2022-12-04T03:12:53.118Z,102646.13
2022-12-04T03:15:46.260Z,102652.41
2022-12-04T03:18:26.695Z,102641.66
2022-12-04T03:21:02.734Z,102661.75
2022-12-04T03:23:39.304Z,102652.47
2022-12-04T03:26:28.948Z,102648.03
2022-12-04T03:29:21.316Z,102640.47
2022-12-04T03:31:57.111Z,102641.06
2022-12-04T03:34:38.889Z,102666.44
2022-12-04T03:37:12.772Z,102631.50
2022-12-04T03:39:55.295Z,102667.59
2022-12-04T03:42:44.278Z,102668.34
2022-12-04T03:45:19.543Z,102646.41
2022-12-04T03:47:55.752Z,102648.81
2022-12-04T03:50:36.419Z,102670.91
2022-12-04T03:53:22.627Z,102649.84
2022-12-04T03:56:16.530Z,102651.56
2022-12-04T03:58:49.188Z,102667.16
2022-12-04T04:01:21.223Z,102647.41
2022-12-04T04:03:52.255Z,102658.84
2022-12-04T04:06:24.147Z,102680.47
2022-12-04T04:08:57.016Z,102688.78
2022-12-04T04:11:48.739Z,102700.59
2022-12-04T04:14:29.054Z,102662.59
2022-12-04T04:17:02.123Z,102667.50
2022-12-04T04:19:32.987Z,102665.75
2022-12-04T04:22:02.950Z,102660.88
2022-12-04T04:24:37.048Z,102678.00
2022-12-04T04:27:04.385Z,102672.84
2022-12-04T04:29:31.545Z,102684.00
2022-12-04T04:32:10.686Z,102670.84
2022-12-04T04:34:49.921Z,102688.66
2022-12-04T04:37:33.131Z,102672.78
2022-12-04T04:40:24.417Z,102680.47
2022-12-04T04:43:23.837Z,102675.03
2022-12-04T04:46:06.917Z,102653.78
2022-12-04T04:48:44.895Z,102674.94
2022-12-04T04:51:12.286Z,102687.59
2022-12-04T04:53:45.560Z,102683.56
2022-12-04T04:56:12.808Z,102687.47
2022-12-04T04:58:39.771Z,102696.16
2022-12-04T05:01:13.279Z,102683.41
2022-12-04T05:03:41.460Z,102693.16
2022-12-04T05:06:08.385Z,102668.31
2022-12-04T05:08:36.253Z,102704.44
2022-12-04T05:11:03.657Z,102682.66
2022-12-04T05:13:31.656Z,102683.94
2022-12-04T05:15:59.705Z,102710.09
2022-12-04T05:18:27.586Z,102698.94
2022-12-04T05:20:55.022Z,102668.91
2022-12-04T05:23:22.389Z,102688.22
2022-12-04T05:25:49.358Z,102680.84
2022-12-04T05:28:16.623Z,102689.47
2022-12-04T05:30:43.895Z,102704.69
2022-12-04T05:33:11.002Z,102705.06
2022-12-04T05:35:37.955Z,102691.44
2022-12-04T05:38:04.962Z,102684.03
2022-12-04T05:40:31.847Z,102689.41
2022-12-04T05:42:58.741Z,102707.81
2022-12-04T05:45:25.648Z,102706.25
2022-12-04T05:47:52.635Z,102682.38
2022-12-04T05:50:19.572Z,102713.63
2022-12-04T05:52:46.524Z,102727.66
2022-12-04T05:55:13.415Z,102731.13
2022-12-04T05:57:40.368Z,102736.19
2022-12-04T06:00:08.021Z,102716.63
2022-12-04T06:02:38.075Z,102715.84
2022-12-04T06:05:05.431Z,102720.69
2022-12-04T06:07:32.587Z,102712.09
2022-12-04T06:09:59.974Z,102738.28
2022-12-04T06:12:31.014Z,102738.34
2022-12-04T06:14:58.051Z,102724.13
2022-12-04T06:17:25.196Z,102738.84
2022-12-04T06:19:52.401Z,102750.06
2022-12-04T06:22:19.981Z,102743.47
2022-12-04T06:24:47.083Z,102758.69
2022-12-04T06:27:29.461Z,102755.41
2022-12-04T06:29:56.790Z,102755.88
2022-12-04T06:32:23.821Z,102755.59
2022-12-04T06:34:54.909Z,102772.19
2022-12-04T06:37:23.257Z,102764.53
2022-12-04T06:39:50.537Z,102763.94
2022-12-04T06:42:17.920Z,102752.69
2022-12-04T06:44:44.813Z,102786.28
2022-12-04T06:47:11.772Z,102741.13
2022-12-04T06:49:38.837Z,102767.25
2022-12-04T06:52:05.843Z,102738.72
2022-12-04T06:54:35.193Z,102752.31
2022-12-04T06:57:02.160Z,102768.63
2022-12-04T06:59:29.139Z,102749.31
2022-12-04T07:01:56.157Z,102755.59
2022-12-04T07:04:23.245Z,102763.84
2022-12-04T07:06:50.252Z,102781.75
2022-12-04T07:09:18.080Z,102749.94
2022-12-04T07:11:46.134Z,102766.66
2022-12-04T07:14:14.304Z,102783.78
2022-12-04T07:16:42.573Z,102762.81
2022-12-04T07:19:11.366Z,102767.84
2022-12-04T07:21:39.840Z,102770.97
2022-12-04T07:24:06.906Z,102784.53
2022-12-04T07:26:34.130Z,102804.41
2022-12-04T07:29:01.009Z,102808.31
2022-12-04T07:31:30.196Z,102776.91
2022-12-04T07:33:58.024Z,102772.56
2022-12-04T07:36:26.353Z,102771.19
2022-12-04T07:38:55.383Z,102791.78
2022-12-04T07:41:22.696Z,102782.84
2022-12-04T07:43:49.780Z,102777.78
2022-12-04T07:46:20.023Z,102758.69
2022-12-04T07:48:47.040Z,102775.19
2022-12-04T07:51:21.449Z,102777.81
2022-12-04T07:53:49.800Z,102738.22
2022-12-04T07:56:18.211Z,102772.69
2022-12-04T07:58:45.384Z,102771.91
2022-12-04T08:01:16.574Z,102785.66
2022-12-04T08:03:48.418Z,102781.66
2022-12-04T08:06:18.442Z,102768.78
2022-12-04T08:08:46.101Z,102758.63
2022-12-04T08:11:16.473Z,102762.56
2022-12-04T08:13:43.949Z,102755.13
2022-12-04T08:16:12.309Z,102769.78
2022-12-04T08:18:39.428Z,102760.91
2022-12-04T08:21:12.805Z,102770.78
2022-12-04T08:23:42.012Z,102759.72
2022-12-04T08:26:09.700Z,102762.66
2022-12-04T08:28:37.049Z,102761.13
2022-12-04T08:31:10.293Z,102755.75
2022-12-04T08:33:37.486Z,102770.59
2022-12-04T08:36:12.350Z,102748.84
2022-12-04T08:38:39.631Z,102757.09
2022-12-04T08:41:08.393Z,102761.84
2022-12-04T08:43:35.419Z,102764.66
2022-12-04T08:46:05.902Z,102755.38
2022-12-04T08:48:34.277Z,102726.81
2022-12-04T08:51:01.681Z,102741.03
2022-12-04T08:53:28.635Z,102735.53
2022-12-04T08:55:55.436Z,102743.38
2022-12-04T08:58:23.116Z,102753.50
2022-12-04T09:00:50.040Z,102745.53
2022-12-04T09:03:19.140Z,102732.06
2022-12-04T09:05:46.772Z,102749.31
2022-12-04T09:08:15.722Z,102753.97
2022-12-04T09:10:43.199Z,102720.63
2022-12-04T09:13:10.492Z,102717.69
2022-12-04T09:15:41.326Z,102722.16
2022-12-04T09:18:09.054Z,102747.50
2022-12-04T09:20:37.095Z,102725.94
2022-12-04T09:23:05.812Z,102721.72
2022-12-04T09:25:37.062Z,102694.44
2022-12-04T09:28:04.679Z,102707.47
2022-12-04T09:30:31.840Z,102722.25
2022-12-04T09:32:58.947Z,102732.94
2022-12-04T09:35:25.869Z,102706.44
2022-12-04T09:37:52.813Z,102714.72
2022-12-04T09:40:33.490Z,102689.38
2022-12-04T09:43:21.578Z,102693.38
2022-12-04T09:45:55.237Z,102698.88
2022-12-04T09:48:32.274Z,102712.69
2022-12-04T09:51:02.012Z,102696.00
2022-12-04T09:53:46.989Z,102707.84
2022-12-04T09:56:17.030Z,102704.78
2022-12-04T09:58:46.924Z,102703.00
2022-12-04T10:01:26.980Z,102696.78
2022-12-04T10:03:58.703Z,102682.22
2022-12-04T10:06:40.157Z,102692.13
2022-12-04T10:09:20.585Z,102680.25
2022-12-04T10:12:18.386Z,102710.47
2022-12-04T10:15:26.582Z,102688.59
2022-12-04T10:18:15.064Z,102690.50
2022-12-04T10:21:09.578Z,102698.25
2022-12-04T10:23:45.098Z,102684.56
2022-12-04T10:26:16.508Z,102672.63
2022-12-04T10:28:55.068Z,102673.16
2022-12-04T10:31:24.807Z,102691.25
2022-12-04T10:34:01.576Z,102683.38
2022-12-04T10:36:32.789Z,102704.38
2022-12-04T10:39:10.387Z,102676.78
2022-12-04T10:42:01.482Z,102668.84
2022-12-04T10:44:28.569Z,102676.25
2022-12-04T10:46:59.286Z,102679.81
2022-12-04T10:49:29.571Z,102664.00
2022-12-04T10:51:56.947Z,102653.94
2022-12-04T10:54:37.483Z,102668.41
2022-12-04T10:57:10.009Z,102663.16
2022-12-04T10:59:57.101Z,102678.75
2022-12-04T11:02:31.755Z,102643.91
2022-12-04T11:05:25.022Z,102637.06
2022-12-04T11:07:52.813Z,102648.66
2022-12-04T11:10:19.789Z,102646.09
2022-12-04T11:12:57.289Z,102627.75
2022-12-04T11:15:25.123Z,102659.06
2022-12-04T11:17:52.785Z,102628.41
2022-12-04T11:20:27.018Z,102614.00
2022-12-04T11:22:57.490Z,102641.00
2022-12-04T11:25:28.290Z,102620.53
2022-12-04T11:27:58.746Z,102632.13
2022-12-04T11:30:33.934Z,102636.19
2022-12-04T11:33:03.296Z,102623.56
2022-12-04T11:35:31.740Z,102616.66
2022-12-04T11:38:05.505Z,102629.63
2022-12-04T11:40:32.569Z,102607.22
2022-12-04T11:43:14.514Z,102590.59
2022-12-04T11:45:42.365Z,102624.72
2022-12-04T11:48:18.213Z,102626.66
2022-12-04T11:51:00.756Z,102628.09
2022-12-04T11:54:00.217Z,102615.81
2022-12-04T11:56:33.827Z,102617.50
2022-12-04T11:59:19.948Z,102617.34
2022-12-04T12:02:00.881Z,102600.59
2022-12-04T12:04:43.866Z,102600.31
2022-12-04T12:07:40.234Z,102580.97
2022-12-04T12:10:17.451Z,102594.16
2022-12-04T12:13:34.220Z,102594.59
2022-12-04T12:16:13.538Z,102618.28
2022-12-04T12:18:40.423Z,102589.72
2022-12-04T12:21:23.361Z,102615.44
2022-12-04T12:24:07.730Z,102612.13
2022-12-04T12:26:50.146Z,102575.22
2022-12-04T12:29:47.726Z,102622.66
2022-12-04T12:32:49.503Z,102630.16
2022-12-04T12:35:41.255Z,102614.75
2022-12-04T12:38:22.109Z,102613.34
2022-12-04T12:40:53.436Z,102607.44
2022-12-04T12:43:35.737Z,102618.53
2022-12-04T12:46:34.934Z,102619.31
2022-12-04T12:49:12.707Z,102611.59
2022-12-04T12:51:49.166Z,102611.38
2022-12-04T12:54:46.095Z,102617.50
2022-12-04T12:57:21.933Z,102615.53
2022-12-04T12:59:56.350Z,102613.53
2022-12-04T13:02:34.503Z,102615.72
2022-12-04T13:05:06.124Z,102611.97
2022-12-04T13:07:40.509Z,102605.63
2022-12-04T13:10:15.149Z,102600.50
2022-12-04T13:12:51.763Z,102621.03
2022-12-04T13:15:24.530Z,102602.88
2022-12-04T13:17:56.505Z,102626.94
2022-12-04T13:20:31.931Z,102608.34
2022-12-04T13:23:49.351Z,102611.06
2022-12-04T13:26:53.578Z,102612.69
2022-12-04T13:29:46.096Z,102625.34
2022-12-04T13:32:31.528Z,102613.25
2022-12-04T13:35:14.974Z,102612.69
2022-12-04T13:37:50.891Z,102618.81
2022-12-04T13:40:17.825Z,102576.69
2022-12-04T13:42:44.841Z,102608.72
2022-12-04T13:45:32.474Z,102601.34
2022-12-04T13:48:02.162Z,102600.59
2022-12-04T13:50:38.159Z,102610.00
2022-12-04T13:53:06.077Z,102594.88
2022-12-04T13:55:37.199Z,102604.34
2022-12-04T13:58:13.991Z,102616.97
2022-12-04T14:00:44.455Z,102589.06
2022-12-04T14:03:32.661Z,102589.75
2022-12-04T14:06:01.861Z,102612.69
2022-12-04T14:08:43.167Z,102590.47
2022-12-04T14:11:16.839Z,102610.28
2022-12-04T14:14:08.158Z,102603.16
2022-12-04T14:16:42.468Z,102609.69
2022-12-04T14:19:28.412Z,102623.53
2022-12-04T14:21:55.367Z,102592.09
2022-12-04T14:24:39.340Z,102600.63
2022-12-04T14:27:54.668Z,102602.03
2022-12-04T14:30:27.540Z,102573.94
2022-12-04T14:33:09.000Z,102602.56
2022-12-04T14:36:04.969Z,102591.69
2022-12-04T14:38:32.807Z,102600.22
2022-12-04T14:41:00.418Z,102603.94
2022-12-04T14:43:39.447Z,102584.97
2022-12-04T14:46:50.726Z,102592.16
2022-12-04T14:49:36.336Z,102599.53
2022-12-04T14:52:27.398Z,102568.13
2022-12-04T14:55:13.296Z,102586.91
2022-12-04T14:57:55.720Z,102584.94
2022-12-04T15:00:25.838Z,102592.41
2022-12-04T15:02:56.715Z,102586.47
2022-12-04T15:05:30.226Z,102561.63
2022-12-04T15:08:01.504Z,102584.72
2022-12-04T15:10:31.382Z,102593.59
2022-12-04T15:12:58.704Z,102603.81
2022-12-04T15:15:30.362Z,102577.72
2022-12-04T15:18:10.358Z,102602.75
2022-12-04T15:20:50.334Z,102602.44
2022-12-04T15:23:33.595Z,102581.66
2022-12-04T15:26:07.761Z,102575.13
2022-12-04T15:28:43.369Z,102586.72
2022-12-04T15:31:38.488Z,102583.75
2022-12-04T15:34:13.502Z,102575.75
2022-12-04T15:36:50.429Z,102557.50
2022-12-04T15:39:21.781Z,102579.22
2022-12-04T15:41:49.629Z,102575.75
2022-12-04T15:44:27.514Z,102587.34
2022-12-04T15:46:58.139Z,102551.28
2022-12-04T15:49:28.397Z,102557.22
2022-12-04T15:52:15.455Z,102533.31
2022-12-04T15:54:59.675Z,102580.47
2022-12-04T15:57:33.010Z,102563.69
2022-12-04T16:00:06.646Z,102594.25
2022-12-04T16:02:43.528Z,102567.38
2022-12-04T16:05:34.216Z,102593.91
2022-12-04T16:08:21.779Z,102576.50
2022-12-04T16:11:04.838Z,102583.19
2022-12-04T16:13:41.047Z,102571.75
2022-12-04T16:16:13.388Z,102560.69
2022-12-04T16:18:43.327Z,102572.13
2022-12-04T16:21:24.040Z,102567.72
2022-12-04T16:23:51.744Z,102564.09
2022-12-04T16:26:21.053Z,102587.44
2022-12-04T16:28:51.502Z,102566.59
2022-12-04T16:31:24.008Z,102566.72
2022-12-04T16:33:53.138Z,102573.31
2022-12-04T16:36:37.296Z,102555.47
2022-12-04T16:39:06.303Z,102565.31
2022-12-04T16:41:35.666Z,102542.66
2022-12-04T16:44:09.577Z,102564.59
2022-12-04T16:46:37.565Z,102575.84
2022-12-04T16:49:07.795Z,102563.41
2022-12-04T16:51:38.027Z,102559.91
2022-12-04T16:54:06.627Z,102574.63
2022-12-04T16:56:34.915Z,102573.09
2022-12-04T16:59:07.716Z,102536.69
2022-12-04T17:01:45.714Z,102565.50
2022-12-04T17:04:13.028Z,102574.44
2022-12-04T17:06:43.091Z,102533.78
2022-12-04T17:09:12.851Z,102552.59
2022-12-04T17:11:41.767Z,102544.50
2022-12-04T17:14:13.698Z,102565.50
2022-12-04T17:16:44.152Z,102570.19
2022-12-04T17:19:13.693Z,102573.47
2022-12-04T17:21:41.846Z,102555.19
2022-12-04T17:24:09.317Z,102550.97
2022-12-04T17:26:36.660Z,102551.47
2022-12-04T17:29:03.986Z,102564.38
2022-12-04T17:31:31.510Z,102550.44
2022-12-04T17:33:58.622Z,102543.84
2022-12-04T17:36:26.461Z,102556.59
2022-12-04T17:38:55.586Z,102556.16
2022-12-04T17:41:22.553Z,102526.84
2022-12-04T17:43:49.804Z,102542.13
2022-12-04T17:46:20.810Z,102545.09
2022-12-04T17:48:48.667Z,102547.78
2022-12-04T17:51:21.833Z,102544.72
2022-12-04T17:53:49.412Z,102552.69
2022-12-04T17:56:20.124Z,102570.38
2022-12-04T17:58:47.886Z,102536.06
2022-12-04T18:01:21.001Z,102542.94
2022-12-04T18:03:59.139Z,102552.94
2022-12-04T18:06:29.108Z,102525.38
2022-12-04T18:08:56.816Z,102535.50
2022-12-04T18:11:26.493Z,102559.34
2022-12-04T18:13:59.789Z,102536.97
2022-12-04T18:16:29.223Z,102551.47
2022-12-04T18:18:57.695Z,102558.22
2022-12-04T18:21:25.361Z,102556.38
2022-12-04T18:23:52.888Z,102542.19
2022-12-04T18:26:22.426Z,102547.53
2022-12-04T18:28:49.674Z,102542.75
2022-12-04T18:31:18.927Z,102546.38
2022-12-04T18:33:47.282Z,102542.56
2022-12-04T18:36:17.997Z,102547.91
2022-12-04T18:38:45.462Z,102532.59
2022-12-04T18:41:16.839Z,102532.31
2022-12-04T18:43:44.914Z,102557.75
2022-12-04T18:46:15.012Z,102549.03
2022-12-04T18:48:43.646Z,102570.88
2022-12-04T18:51:24.993Z,102550.69
2022-12-04T18:53:55.689Z,102572.66
2022-12-04T18:56:23.287Z,102561.56
2022-12-04T18:58:50.282Z,102549.53
2022-12-04T19:01:19.699Z,102541.59
2022-12-04T19:03:47.788Z,102540.25
2022-12-04T19:06:15.253Z,102540.63
2022-12-04T19:08:43.637Z,102533.56
2022-12-04T19:11:16.285Z,102562.31
2022-12-04T19:13:43.344Z,102542.16
2022-12-04T19:16:15.632Z,102549.09
2022-12-04T19:18:43.967Z,102558.66
2022-12-04T19:21:11.698Z,102560.59
2022-12-04T19:23:38.807Z,102568.13
2022-12-04T19:26:06.032Z,102543.38
2022-12-04T19:28:33.123Z,102557.44
2022-12-04T19:31:00.172Z,102555.03
2022-12-04T19:33:28.094Z,102528.06
2022-12-04T19:36:03.651Z,102517.78
2022-12-04T19:38:32.195Z,102536.09
2022-12-04T19:41:11.622Z,102551.75
2022-12-04T19:43:40.332Z,102534.78
2022-12-04T19:46:09.193Z,102521.75
2022-12-04T19:48:37.102Z,102542.25
2022-12-04T19:51:06.214Z,102546.72
2022-12-04T19:53:39.194Z,102516.88
2022-12-04T19:56:13.752Z,102538.31
2022-12-04T19:58:40.996Z,102509.38
2022-12-04T20:01:11.352Z,102557.66
2022-12-04T20:03:38.600Z,102541.22
2022-12-04T20:06:15.075Z,102556.13
2022-12-04T20:08:42.947Z,102546.47
2022-12-04T20:11:13.033Z,102533.09
2022-12-04T20:13:40.505Z,102545.63
2022-12-04T20:16:11.721Z,102517.41
2022-12-04T20:18:40.721Z,102540.59
2022-12-04T20:21:08.318Z,102533.69
2022-12-04T20:23:35.301Z,102555.03
2022-12-04T20:26:06.471Z,102541.91
2022-12-04T20:28:33.493Z,102516.94
2022-12-04T20:31:00.735Z,102500.06
2022-12-04T20:33:27.732Z,102538.41
2022-12-04T20:35:54.547Z,102542.84
2022-12-04T20:38:21.576Z,102511.41
2022-12-04T20:40:48.430Z,102527.03
2022-12-04T20:43:15.408Z,102529.25
2022-12-04T20:45:42.370Z,102521.75
2022-12-04T20:48:09.369Z,102546.13
2022-12-04T20:50:36.379Z,102547.69
2022-12-04T20:53:03.676Z,102520.03
2022-12-04T20:55:30.499Z,102536.91
2022-12-04T20:57:57.485Z,102518.09
2022-12-04T21:00:24.690Z,102532.22
2022-12-04T21:02:51.696Z,102507.25
2022-12-04T21:05:18.577Z,102521.50
2022-12-04T21:07:45.532Z,102530.50
2022-12-04T21:10:12.479Z,102505.59
2022-12-04T21:12:43.136Z,102495.50
2022-12-04T21:15:10.578Z,102518.81
2022-12-04T21:17:37.577Z,102489.81
2022-12-04T21:20:07.830Z,102509.56
2022-12-04T21:22:35.494Z,102523.94
2022-12-04T21:25:02.315Z,102499.16
2022-12-04T21:27:29.970Z,102498.34
2022-12-04T21:29:56.951Z,102480.94
2022-12-04T21:32:24.261Z,102503.75
2022-12-04T21:34:51.049Z,102496.41
2022-12-04T21:37:17.983Z,102519.28
2022-12-04T21:39:44.982Z,102519.56
2022-12-04T21:42:11.835Z,102493.00
2022-12-04T21:44:38.803Z,102472.94
2022-12-04T21:47:05.736Z,102493.31
2022-12-04T21:49:32.569Z,102488.84
2022-12-04T21:51:59.686Z,102513.13
2022-12-04T21:54:27.914Z,102510.81
2022-12-04T21:56:55.788Z,102504.69
2022-12-04T21:59:23.840Z,102486.03
2022-12-04T22:01:50.867Z,102471.38
2022-12-04T22:04:18.210Z,102512.59
2022-12-04T22:06:45.315Z,102493.34
2022-12-04T22:09:13.471Z,102505.16
2022-12-04T22:11:41.692Z,102514.13
2022-12-04T22:14:09.819Z,102517.22
2022-12-04T22:16:41.849Z,102515.53
2022-12-04T22:19:11.658Z,102489.88
2022-12-04T22:21:39.495Z,102505.72
2022-12-04T22:24:07.102Z,102490.00
2022-12-04T22:26:34.013Z,102510.16
2022-12-04T22:29:01.126Z,102497.50
2022-12-04T22:31:30.182Z,102453.88
2022-12-04T22:33:59.692Z,102491.66
2022-12-04T22:36:32.236Z,102464.91
2022-12-04T22:39:09.312Z,102492.88
2022-12-04T22:41:36.646Z,102498.97
2022-12-04T22:44:03.470Z,102509.56
2022-12-04T22:46:30.471Z,102487.19
2022-12-04T22:48:59.033Z,102485.19
2022-12-04T22:51:27.060Z,102481.69
2022-12-04T22:53:56.263Z,102486.84
2022-12-04T22:56:29.376Z,102470.31
2022-12-04T22:58:57.109Z,102473.13
2022-12-04T23:01:27.155Z,102453.94
2022-12-04T23:03:55.155Z,102455.47
2022-12-04T23:06:23.851Z,102463.28
2022-12-04T23:08:59.523Z,102434.81
2022-12-04T23:11:28.092Z,102456.84
2022-12-04T23:13:57.996Z,102465.72
2022-12-04T23:16:25.204Z,102476.00
2022-12-04T23:18:52.573Z,102467.38
2022-12-04T23:21:21.325Z,102440.56
2022-12-04T23:23:50.894Z,102441.72
2022-12-04T23:26:23.766Z,102455.75
2022-12-04T23:28:51.152Z,102461.81
2022-12-04T23:31:18.722Z,102464.31
2022-12-04T23:33:45.847Z,102460.41
2022-12-04T23:36:14.205Z,102449.38
2022-12-04T23:38:43.457Z,102439.34
2022-12-04T23:41:22.340Z,102470.63
2022-12-04T23:43:50.481Z,102445.06
2022-12-04T23:46:20.655Z,102444.72
2022-12-04T23:48:50.058Z,102466.09
2022-12-04T23:51:19.344Z,102449.59
2022-12-04T23:53:47.219Z,102452.97
2022-12-04T23:56:20.434Z,102445.69
2022-12-04T23:58:49.137Z,102448.13
